Main page
METAR-TAF:

METAR-TAF

Airports :

Castres, France

Castres–Mazamet Airport

latitude: 43-33-25N, longitude: 2-17-21E, elevation: 239 m

Current weather observation

The report was made 21 minutes ago, at 16:30 UTC
Wind 9 kt from the West/Northwest
Temperature 24°C
Humidity 65%
Pressure 1016 hPa
Visibility 10 km or more
Overcast at a height of 3500 ft

METAR: LFCK 221630Z AUTO 30009KT 9999 OVC035 24/17 Q1016 NOSIG

Time: 18:51 (16:51 UTC)

Forecast

The report was made 2 hours and 51 minutes ago, at 14:00 UTC
Forecast valid from 22 at 15 UTC to 22 at 24 UTC
Wind 6 kt from the West
Visibility 10 km or more
Scattered clouds at a height of 3500 ft

TAF: LFCK 221400Z 2215/2224 27006KT 9999 SCT035

Weather observations and forecasts of more than 4000 airports (METAR and TAF reports).

The available stations are represented by yellow and red dots on the map.

Hover mouse over dot to see the name of the station.

Then click to see weather observations and forecasts.

To change the map : click on the green buttons with a black cross to zoom in, on the green button with a dash to zoom out, or on the green arrows for adjacent maps.


METAR-TAF: